createdAt,value
2023-03-30T00:01:09.736Z,994
2023-03-30T00:02:25.872Z,994
2023-03-30T00:03:41.988Z,994
2023-03-30T00:04:58.134Z,994
2023-03-30T00:06:14.269Z,994
2023-03-30T00:07:30.403Z,993.9
2023-03-30T00:08:46.543Z,993.9
2023-03-30T00:10:02.678Z,993.8
2023-03-30T00:11:18.799Z,993.9
2023-03-30T00:12:34.950Z,993.9
2023-03-30T00:13:51.081Z,993.9
2023-03-30T00:15:07.216Z,993.8
2023-03-30T00:16:23.355Z,993.8
2023-03-30T00:17:39.487Z,993.8
2023-03-30T00:18:55.631Z,993.8
2023-03-30T00:20:11.768Z,993.8
2023-03-30T00:21:27.910Z,993.8
2023-03-30T00:22:44.037Z,993.7
2023-03-30T00:24:00.227Z,993.7
2023-03-30T00:25:15.472Z,993.6
2023-03-30T00:26:31.664Z,993.7
2023-03-30T00:27:46.862Z,993.7
2023-03-30T00:29:03.016Z,993.7
2023-03-30T00:30:19.143Z,993.7
2023-03-30T00:31:35.277Z,993.6
2023-03-30T00:32:51.408Z,993.6
2023-03-30T00:34:07.547Z,993.6
2023-03-30T00:35:23.687Z,993.5
2023-03-30T00:36:39.831Z,993.5
2023-03-30T00:37:55.946Z,993.5
2023-03-30T00:39:12.086Z,993.4
2023-03-30T00:40:28.228Z,993.4
2023-03-30T00:41:44.367Z,993.4
2023-03-30T00:43:00.510Z,993.4
2023-03-30T00:44:16.628Z,993.4
2023-03-30T00:45:32.759Z,993.4
2023-03-30T00:46:48.905Z,993.4
2023-03-30T00:48:05.048Z,993.4
2023-03-30T00:49:21.184Z,993.3
2023-03-30T00:50:37.323Z,993.4
2023-03-30T00:51:53.452Z,993.3
2023-03-30T00:53:09.576Z,993.3
2023-03-30T00:54:25.726Z,993.3
2023-03-30T00:55:41.855Z,993.3
2023-03-30T00:56:57.999Z,993.2
2023-03-30T00:58:14.133Z,993.2
2023-03-30T00:59:30.320Z,993.2
2023-03-30T01:00:45.551Z,993.2
2023-03-30T01:02:00.771Z,993.2
2023-03-30T01:03:15.917Z,993
2023-03-30T01:04:32.046Z,993
2023-03-30T01:05:48.180Z,993
2023-03-30T01:07:04.315Z,993
2023-03-30T01:08:20.455Z,993
2023-03-30T01:09:36.603Z,992.9
2023-03-30T01:10:52.723Z,992.8
2023-03-30T01:12:08.858Z,992.9
2023-03-30T01:13:24.997Z,992.8
2023-03-30T01:14:41.122Z,992.8
2023-03-30T01:15:57.283Z,992.8
2023-03-30T01:17:13.416Z,992.8
2023-03-30T01:18:29.545Z,992.8
2023-03-30T01:19:45.683Z,992.8
2023-03-30T01:21:01.804Z,992.7
2023-03-30T01:22:17.955Z,992.7
2023-03-30T01:23:34.101Z,992.7
2023-03-30T01:24:50.220Z,992.6
2023-03-30T01:26:06.349Z,992.6
2023-03-30T01:27:22.481Z,992.6
2023-03-30T01:28:38.647Z,992.6
2023-03-30T01:29:54.781Z,992.6
2023-03-30T01:31:10.915Z,992.6
2023-03-30T01:32:27.033Z,992.6
2023-03-30T01:33:43.162Z,992.5
2023-03-30T01:34:59.314Z,992.6
2023-03-30T01:36:15.446Z,992.6
2023-03-30T01:37:31.593Z,992.5
2023-03-30T01:38:47.721Z,992.6
2023-03-30T01:40:03.842Z,992.5
2023-03-30T01:41:19.991Z,992.5
2023-03-30T01:42:36.135Z,992.5
2023-03-30T01:43:52.269Z,992.5
2023-03-30T01:45:08.398Z,992.4
2023-03-30T01:46:24.523Z,992.4
2023-03-30T01:47:40.679Z,992.5
2023-03-30T01:48:56.815Z,992.5
2023-03-30T01:50:13.014Z,992.5
2023-03-30T01:51:28.241Z,992.4
2023-03-30T01:52:43.444Z,992.4
2023-03-30T01:53:59.585Z,992.4
2023-03-30T01:55:15.709Z,992.4
2023-03-30T01:56:31.847Z,992.4
2023-03-30T01:57:48.003Z,992.3
2023-03-30T01:59:04.129Z,992.3
2023-03-30T02:00:20.263Z,992.3
2023-03-30T02:01:36.396Z,992.3
2023-03-30T02:02:52.532Z,992.3
2023-03-30T02:04:08.669Z,992.3
2023-03-30T02:05:24.805Z,992.2
2023-03-30T02:06:40.949Z,992.2
2023-03-30T02:07:57.087Z,992.2
2023-03-30T02:09:13.215Z,992.3
2023-03-30T02:10:29.363Z,992.2
2023-03-30T02:11:45.486Z,992.2
2023-03-30T02:13:01.624Z,992.2
2023-03-30T02:14:17.760Z,992.1
2023-03-30T02:15:33.892Z,992.1
2023-03-30T02:16:50.048Z,992.1
2023-03-30T02:18:06.169Z,992.1
2023-03-30T02:19:22.300Z,992.1
2023-03-30T02:20:38.442Z,992.1
2023-03-30T02:21:54.563Z,992.1
2023-03-30T02:23:10.712Z,992.1
2023-03-30T02:24:26.903Z,992
2023-03-30T02:25:42.163Z,992
2023-03-30T02:26:57.372Z,992
2023-03-30T02:28:13.518Z,991.9
2023-03-30T02:29:29.649Z,991.9
2023-03-30T02:30:45.787Z,991.9
2023-03-30T02:32:01.914Z,991.8
2023-03-30T02:33:18.056Z,991.7
2023-03-30T02:34:34.199Z,991.8
2023-03-30T02:35:50.332Z,991.7
2023-03-30T02:37:06.454Z,991.7
2023-03-30T02:38:22.588Z,991.7
2023-03-30T02:39:38.737Z,991.7
2023-03-30T02:40:54.863Z,991.7
2023-03-30T02:42:11.006Z,991.6
2023-03-30T02:43:27.141Z,991.7
2023-03-30T02:44:43.274Z,991.6
2023-03-30T02:45:59.417Z,991.6
2023-03-30T02:47:15.563Z,991.6
2023-03-30T02:48:31.694Z,991.6
2023-03-30T02:49:47.821Z,991.5
2023-03-30T02:51:03.949Z,991.5
2023-03-30T02:52:20.097Z,991.6
2023-03-30T02:53:36.231Z,991.6
2023-03-30T02:54:52.372Z,991.5
2023-03-30T02:56:08.505Z,991.5
2023-03-30T02:57:24.642Z,991.5
2023-03-30T02:58:40.841Z,991.5
2023-03-30T02:59:56.087Z,991.5
2023-03-30T03:01:12.274Z,991.5
2023-03-30T03:02:27.472Z,991.5
2023-03-30T03:03:43.610Z,991.4
2023-03-30T03:04:59.742Z,991.5
2023-03-30T03:06:15.884Z,991.4
2023-03-30T03:07:32.002Z,991.4
2023-03-30T03:08:48.159Z,991.4
2023-03-30T03:10:04.299Z,991.4
2023-03-30T03:11:20.424Z,991.4
2023-03-30T03:12:36.565Z,991.4
2023-03-30T03:13:52.696Z,991.4
2023-03-30T03:15:08.846Z,991.3
2023-03-30T03:16:24.967Z,991.3
2023-03-30T03:17:41.101Z,991.3
2023-03-30T03:18:57.244Z,991.2
2023-03-30T03:20:13.365Z,991.2
2023-03-30T03:21:29.526Z,991.2
2023-03-30T03:22:45.646Z,991.2
2023-03-30T03:24:01.785Z,991.2
2023-03-30T03:25:17.927Z,991.1
2023-03-30T03:26:34.053Z,991.1
2023-03-30T03:27:50.200Z,991.1
2023-03-30T03:29:06.332Z,991
2023-03-30T03:30:22.459Z,991
2023-03-30T03:31:38.604Z,991
2023-03-30T03:32:54.730Z,991
2023-03-30T03:34:10.949Z,990.9
2023-03-30T03:35:26.187Z,990.9
2023-03-30T03:36:41.383Z,990.9
2023-03-30T03:37:57.533Z,990.9
2023-03-30T03:39:13.658Z,990.8
2023-03-30T03:40:29.799Z,990.8
2023-03-30T03:41:45.923Z,990.7
2023-03-30T03:43:02.071Z,990.7
2023-03-30T03:44:18.210Z,990.7
2023-03-30T03:45:34.348Z,990.7
2023-03-30T03:46:50.479Z,990.7
2023-03-30T03:48:06.613Z,990.7
2023-03-30T03:49:22.738Z,990.7
2023-03-30T03:50:38.891Z,990.6
2023-03-30T03:51:55.023Z,990.6
2023-03-30T03:53:11.156Z,990.6
2023-03-30T03:54:27.297Z,990.5
2023-03-30T03:55:43.420Z,990.5
2023-03-30T03:56:59.576Z,990.5
2023-03-30T03:58:15.706Z,990.5
2023-03-30T03:59:31.844Z,990.6
2023-03-30T04:00:47.973Z,990.7
2023-03-30T04:02:04.104Z,990.7
2023-03-30T04:03:20.243Z,990.7
2023-03-30T04:04:36.381Z,990.7
2023-03-30T04:05:52.526Z,990.6
2023-03-30T04:07:08.652Z,990.6
2023-03-30T04:08:24.838Z,990.5
2023-03-30T04:09:40.081Z,990.5
2023-03-30T04:10:55.291Z,990.4
2023-03-30T04:12:10.435Z,990.4
2023-03-30T04:13:26.565Z,990.4
2023-03-30T04:14:42.715Z,990.3
2023-03-30T04:15:58.830Z,990.4
2023-03-30T04:17:14.964Z,990.5
2023-03-30T04:18:31.117Z,990.4
2023-03-30T04:19:47.255Z,990.4
2023-03-30T04:21:03.380Z,990.4
2023-03-30T04:22:19.510Z,990.4
2023-03-30T04:23:35.659Z,990.5
2023-03-30T04:24:51.807Z,990.5
2023-03-30T04:26:07.931Z,990.5
2023-03-30T04:27:24.071Z,990.5
2023-03-30T04:28:40.201Z,990.5
2023-03-30T04:29:56.343Z,990.5
2023-03-30T04:31:12.471Z,990.5
2023-03-30T04:32:28.620Z,990.4
2023-03-30T04:33:44.757Z,990.3
2023-03-30T04:35:00.878Z,990.3
2023-03-30T04:36:17.014Z,990.3
2023-03-30T04:37:33.168Z,990.2
2023-03-30T04:38:49.296Z,990.3
2023-03-30T04:40:05.426Z,990.3
2023-03-30T04:41:21.551Z,990.3
2023-03-30T04:42:37.699Z,990.2
2023-03-30T04:43:53.833Z,990.1
2023-03-30T04:46:26.099Z,990.2
2023-03-30T04:47:42.231Z,990.2
2023-03-30T04:48:58.367Z,990.3
2023-03-30T04:50:14.000Z,990.2
2023-03-30T04:51:30.645Z,990.2
2023-03-30T04:52:46.790Z,990.2
2023-03-30T04:54:02.911Z,990.2
2023-03-30T04:55:19.059Z,990.2
2023-03-30T04:56:35.210Z,990.2
2023-03-30T04:57:51.340Z,990.2
2023-03-30T04:59:07.532Z,990.1
2023-03-30T05:00:22.767Z,990.1
2023-03-30T05:01:37.965Z,990.1
2023-03-30T05:02:54.103Z,990.1
2023-03-30T05:04:10.242Z,990
2023-03-30T05:06:42.515Z,990.1
2023-03-30T05:07:58.649Z,990
2023-03-30T05:09:14.792Z,989.9
2023-03-30T05:10:30.912Z,990
2023-03-30T05:11:47.059Z,990
2023-03-30T05:13:03.204Z,990
2023-03-30T05:14:19.327Z,990
2023-03-30T05:15:35.460Z,990
2023-03-30T05:16:51.605Z,990
2023-03-30T05:18:07.724Z,990
2023-03-30T05:19:23.885Z,989.9
2023-03-30T05:20:40.009Z,989.9
2023-03-30T05:21:56.146Z,990
2023-03-30T05:23:12.276Z,989.9
2023-03-30T05:24:28.409Z,989.9
2023-03-30T05:25:44.570Z,989.9
2023-03-30T05:27:00.698Z,989.9
2023-03-30T05:28:16.819Z,989.9
2023-03-30T05:29:32.957Z,989.9
2023-03-30T05:30:49.103Z,989.9
2023-03-30T05:32:05.233Z,989.9
2023-03-30T05:33:21.433Z,989.8
2023-03-30T05:34:36.673Z,989.9
2023-03-30T05:35:52.875Z,989.9
2023-03-30T05:37:08.069Z,989.9
2023-03-30T05:38:24.199Z,989.9
2023-03-30T05:39:40.335Z,989.9
2023-03-30T05:40:56.475Z,989.9
2023-03-30T05:42:12.622Z,989.9
2023-03-30T05:43:28.753Z,989.9
2023-03-30T05:44:44.890Z,989.8
2023-03-30T05:46:01.026Z,989.8
2023-03-30T05:47:17.145Z,989.8
2023-03-30T05:48:33.296Z,989.8
2023-03-30T05:49:49.433Z,989.8
2023-03-30T05:51:05.568Z,989.8
2023-03-30T05:52:21.699Z,989.9
2023-03-30T05:53:37.827Z,989.9
2023-03-30T05:54:53.971Z,989.9
2023-03-30T05:56:10.121Z,989.8
2023-03-30T05:57:26.250Z,989.8
2023-03-30T05:58:42.383Z,989.8
2023-03-30T05:59:58.516Z,989.8
2023-03-30T06:01:14.669Z,989.8
2023-03-30T06:02:30.803Z,989.8
2023-03-30T06:03:46.930Z,989.8
2023-03-30T06:05:03.053Z,989.8
2023-03-30T06:06:19.184Z,989.7
2023-03-30T06:07:35.350Z,989.7
2023-03-30T06:08:51.535Z,989.7
2023-03-30T06:10:06.772Z,989.6
2023-03-30T06:11:21.978Z,989.6
2023-03-30T06:12:38.119Z,989.6
2023-03-30T06:13:54.245Z,989.6
2023-03-30T06:15:10.379Z,989.6
2023-03-30T06:16:26.506Z,989.6
2023-03-30T06:17:42.663Z,989.6
2023-03-30T06:18:58.797Z,989.6
2023-03-30T06:20:14.931Z,989.5
2023-03-30T06:21:31.056Z,989.6
2023-03-30T06:22:47.189Z,989.6
2023-03-30T06:24:03.343Z,989.6
2023-03-30T06:25:19.481Z,989.6
2023-03-30T06:26:35.600Z,989.6
2023-03-30T06:27:51.738Z,989.6
2023-03-30T06:29:07.865Z,989.6
2023-03-30T06:30:24.030Z,989.6
2023-03-30T06:31:40.161Z,989.6
2023-03-30T06:32:56.279Z,989.7
2023-03-30T06:34:12.411Z,989.7
2023-03-30T06:35:28.551Z,989.7
2023-03-30T06:36:44.702Z,989.7
2023-03-30T06:38:00.833Z,989.7
2023-03-30T06:39:16.964Z,989.7
2023-03-30T06:40:33.103Z,989.7
2023-03-30T06:41:49.234Z,989.7
2023-03-30T06:43:05.438Z,989.6
2023-03-30T06:44:20.696Z,989.6
2023-03-30T06:45:35.901Z,989.6
2023-03-30T06:46:52.041Z,989.6
2023-03-30T06:48:08.194Z,989.6
2023-03-30T06:49:24.313Z,989.6
2023-03-30T06:50:40.455Z,989.5
2023-03-30T06:51:56.579Z,989.6
2023-03-30T06:53:12.733Z,989.6
2023-03-30T06:54:28.871Z,989.6
2023-03-30T06:55:44.991Z,989.6
2023-03-30T06:57:01.137Z,989.6
2023-03-30T06:58:17.265Z,989.6
2023-03-30T06:59:33.411Z,989.6
2023-03-30T07:00:49.545Z,989.6
2023-03-30T07:02:05.688Z,989.6
2023-03-30T07:03:21.818Z,989.5
2023-03-30T07:04:37.950Z,989.5
2023-03-30T07:05:54.104Z,989.5
2023-03-30T07:07:10.225Z,989.5
2023-03-30T07:08:26.367Z,989.5
2023-03-30T07:09:42.505Z,989.5
2023-03-30T07:10:58.633Z,989.5
2023-03-30T07:12:14.778Z,989.5
2023-03-30T07:13:30.900Z,989.5
2023-03-30T07:14:47.041Z,989.5
2023-03-30T07:16:03.181Z,989.5
2023-03-30T07:17:19.361Z,989.4
2023-03-30T07:18:34.607Z,989.4
2023-03-30T07:19:50.798Z,989.4
2023-03-30T07:21:05.999Z,989.5
2023-03-30T07:22:22.139Z,989.5
2023-03-30T07:23:38.279Z,989.5
2023-03-30T07:24:54.423Z,989.5
2023-03-30T07:26:10.548Z,989.5
2023-03-30T07:27:26.683Z,989.5
2023-03-30T07:28:42.830Z,989.5
2023-03-30T07:29:58.959Z,989.5
2023-03-30T07:31:15.092Z,989.6
2023-03-30T07:32:31.237Z,989.5
2023-03-30T07:35:03.505Z,989.6
2023-03-30T07:36:19.636Z,989.6
2023-03-30T07:37:35.778Z,989.6
2023-03-30T07:38:51.912Z,989.6
2023-03-30T07:40:08.039Z,989.7
2023-03-30T07:41:24.190Z,989.7
2023-03-30T07:42:40.322Z,989.6
2023-03-30T07:43:56.450Z,989.6
2023-03-30T07:45:12.599Z,989.6
2023-03-30T07:46:28.716Z,989.6
2023-03-30T07:47:44.879Z,989.6
2023-03-30T07:49:01.011Z,989.6
2023-03-30T07:50:17.137Z,989.6
2023-03-30T07:51:33.271Z,989.6
2023-03-30T07:52:49.471Z,989.6
2023-03-30T07:54:04.696Z,989.6
2023-03-30T07:55:19.916Z,989.6
2023-03-30T07:56:36.043Z,989.7
2023-03-30T07:57:52.191Z,989.7
2023-03-30T07:59:08.325Z,989.7
2023-03-30T08:00:24.455Z,989.7
2023-03-30T08:01:40.584Z,989.7
2023-03-30T08:02:56.732Z,989.7
2023-03-30T08:04:12.880Z,989.7
2023-03-30T08:05:29.013Z,989.8
2023-03-30T08:06:45.144Z,989.7
2023-03-30T08:08:01.270Z,989.7
2023-03-30T08:09:17.413Z,989.6
2023-03-30T08:10:33.558Z,989.6
2023-03-30T08:11:49.697Z,989.6
2023-03-30T08:13:05.817Z,989.6
2023-03-30T08:14:21.948Z,989.7
2023-03-30T08:15:38.091Z,989.7
2023-03-30T08:16:54.244Z,989.6
2023-03-30T08:18:10.375Z,989.6
2023-03-30T08:19:26.510Z,989.6
2023-03-30T08:20:42.643Z,989.6
2023-03-30T08:21:58.776Z,989.6
2023-03-30T08:23:14.922Z,989.6
2023-03-30T08:24:31.056Z,989.7
2023-03-30T08:25:47.187Z,989.7
2023-03-30T08:27:03.377Z,989.7
2023-03-30T08:28:18.623Z,989.7
2023-03-30T08:29:33.825Z,989.7
2023-03-30T08:30:48.972Z,989.7
2023-03-30T08:32:05.109Z,989.7
2023-03-30T08:33:21.250Z,989.8
2023-03-30T08:34:37.376Z,989.7
2023-03-30T08:35:53.512Z,989.8
2023-03-30T08:37:09.654Z,989.8
2023-03-30T08:38:25.791Z,989.9
2023-03-30T08:39:41.931Z,989.9
2023-03-30T08:40:58.065Z,989.9
2023-03-30T08:42:14.205Z,989.9
2023-03-30T08:43:30.333Z,989.9
2023-03-30T08:44:46.480Z,989.9
2023-03-30T08:46:02.607Z,989.9
2023-03-30T08:47:18.744Z,989.9
2023-03-30T08:48:34.887Z,989.9
2023-03-30T08:49:51.006Z,989.9
2023-03-30T08:51:07.153Z,989.9
2023-03-30T08:52:23.294Z,989.9
2023-03-30T08:53:39.430Z,989.9
2023-03-30T08:54:55.554Z,989.8
2023-03-30T08:56:11.691Z,989.8
2023-03-30T08:57:27.842Z,989.9
2023-03-30T08:58:43.971Z,989.9
2023-03-30T09:00:00.099Z,989.8
2023-03-30T09:01:16.238Z,989.9
2023-03-30T09:02:32.369Z,989.8
2023-03-30T09:03:48.516Z,989.8
2023-03-30T09:05:04.642Z,989.8
2023-03-30T09:06:20.795Z,989.8
2023-03-30T09:07:36.925Z,989.8
2023-03-30T09:08:53.050Z,989.8
2023-03-30T09:10:09.200Z,989.7
2023-03-30T09:11:25.328Z,989.7
2023-03-30T09:12:41.469Z,989.7
2023-03-30T09:13:57.591Z,989.7
2023-03-30T09:15:13.728Z,989.7
2023-03-30T09:16:29.872Z,989.9
2023-03-30T09:17:46.076Z,989.7
2023-03-30T09:19:01.301Z,989.7
2023-03-30T09:20:16.523Z,989.8
2023-03-30T09:21:32.649Z,989.8
2023-03-30T09:22:48.787Z,989.7
2023-03-30T09:24:04.922Z,989.7
2023-03-30T09:25:21.041Z,989.7
2023-03-30T09:26:37.194Z,989.7
2023-03-30T09:27:53.339Z,989.6
2023-03-30T09:29:09.464Z,989.7
2023-03-30T09:30:25.596Z,989.6
2023-03-30T09:31:41.725Z,989.7
2023-03-30T09:32:57.875Z,989.7
2023-03-30T09:34:14.017Z,989.7
2023-03-30T09:35:30.154Z,989.8
2023-03-30T09:36:46.274Z,989.7
2023-03-30T09:38:02.417Z,989.6
2023-03-30T09:39:18.562Z,989.7
2023-03-30T09:40:34.686Z,989.6
2023-03-30T09:41:50.828Z,989.6
2023-03-30T09:43:06.967Z,989.7
2023-03-30T09:44:23.085Z,989.7
2023-03-30T09:45:39.243Z,989.6
2023-03-30T09:46:55.371Z,989.6
2023-03-30T09:48:11.499Z,989.5
2023-03-30T09:49:27.650Z,989.6
2023-03-30T09:50:43.768Z,989.6
2023-03-30T09:51:59.977Z,989.6
2023-03-30T09:53:15.222Z,989.6
2023-03-30T09:54:31.416Z,989.6
2023-03-30T09:55:46.612Z,989.6
2023-03-30T09:57:02.749Z,989.6
2023-03-30T09:58:18.884Z,989.6
2023-03-30T09:59:35.018Z,989.6
2023-03-30T10:00:51.150Z,989.6
2023-03-30T10:02:07.301Z,989.6
2023-03-30T10:03:23.440Z,989.6
2023-03-30T10:04:39.565Z,989.6
2023-03-30T10:05:55.710Z,989.6
2023-03-30T10:07:11.837Z,989.6
2023-03-30T10:08:27.990Z,989.5
2023-03-30T10:09:44.116Z,989.5
2023-03-30T10:11:00.251Z,989.5
2023-03-30T10:12:16.382Z,989.6
2023-03-30T10:13:32.506Z,989.5
2023-03-30T10:14:48.654Z,989.5
2023-03-30T10:16:04.788Z,989.5
2023-03-30T10:17:20.923Z,989.4
2023-03-30T10:18:37.058Z,989.4
2023-03-30T10:19:53.195Z,989.5
2023-03-30T10:21:09.344Z,989.4
2023-03-30T10:22:25.483Z,989.4
2023-03-30T10:23:41.620Z,989.3
2023-03-30T10:24:57.752Z,989.4
2023-03-30T10:26:13.877Z,989.4
2023-03-30T10:27:30.075Z,989.4
2023-03-30T10:28:45.317Z,989.2
2023-03-30T10:30:00.533Z,989.2
2023-03-30T10:31:16.683Z,989.1
2023-03-30T10:32:32.812Z,989.3
2023-03-30T10:33:48.949Z,989.1
2023-03-30T10:35:05.072Z,989.2
2023-03-30T10:36:21.205Z,989
2023-03-30T10:37:37.353Z,989.1
2023-03-30T10:38:53.479Z,989.1
2023-03-30T10:40:09.620Z,989.1
2023-03-30T10:41:25.756Z,989
2023-03-30T10:42:41.888Z,989
2023-03-30T10:43:58.036Z,989
2023-03-30T10:45:14.170Z,989
2023-03-30T10:46:30.000Z,989
2023-03-30T10:47:46.442Z,988.9
2023-03-30T10:49:02.562Z,988.9
2023-03-30T10:50:18.719Z,988.9
2023-03-30T10:52:50.994Z,988.9
2023-03-30T10:54:07.127Z,988.9
2023-03-30T10:55:23.247Z,988.9
2023-03-30T10:56:39.404Z,988.9
2023-03-30T10:57:55.524Z,989
2023-03-30T10:59:11.000Z,989
2023-03-30T11:00:27.809Z,989
2023-03-30T11:01:43.989Z,989.1
2023-03-30T11:02:59.253Z,989.3
2023-03-30T11:04:14.452Z,989.3
2023-03-30T11:05:30.589Z,989.2
2023-03-30T11:06:46.737Z,989.3
2023-03-30T11:08:02.871Z,989.3
2023-03-30T11:09:19.009Z,989.1
2023-03-30T11:10:35.142Z,988.9
2023-03-30T11:11:51.268Z,988.8
2023-03-30T11:13:07.413Z,988.8
2023-03-30T11:14:23.550Z,988.8
2023-03-30T11:15:39.685Z,988.9
2023-03-30T11:16:55.818Z,988.9
2023-03-30T11:18:11.952Z,988.9
2023-03-30T11:19:28.103Z,988.9
2023-03-30T11:20:44.232Z,988.9
2023-03-30T11:22:00.374Z,989
2023-03-30T11:23:16.503Z,989
2023-03-30T11:24:32.641Z,989
2023-03-30T11:25:48.779Z,989
2023-03-30T11:27:04.919Z,989
2023-03-30T11:28:21.054Z,989
2023-03-30T11:29:37.187Z,989
2023-03-30T11:30:53.305Z,989
2023-03-30T11:32:09.467Z,989
2023-03-30T11:33:25.599Z,989
2023-03-30T11:34:41.730Z,989
2023-03-30T11:35:57.922Z,989
2023-03-30T11:37:13.150Z,989
2023-03-30T11:38:29.350Z,988.9
2023-03-30T11:39:44.558Z,989
2023-03-30T11:41:00.683Z,988.9
2023-03-30T11:42:16.843Z,989
2023-03-30T11:43:32.969Z,989
2023-03-30T11:44:49.093Z,989
2023-03-30T11:46:05.230Z,989
2023-03-30T11:47:21.360Z,989.1
2023-03-30T11:48:37.524Z,989.2
2023-03-30T11:49:53.652Z,989.2
2023-03-30T11:51:09.786Z,989.2
2023-03-30T11:52:25.911Z,989.3
2023-03-30T11:53:42.052Z,989.2
2023-03-30T11:54:58.189Z,989.2
2023-03-30T11:56:14.335Z,989.2
2023-03-30T11:57:30.466Z,989.2
2023-03-30T11:58:46.587Z,989.2
2023-03-30T12:00:02.727Z,989.2
2023-03-30T12:01:18.882Z,989.3
2023-03-30T12:02:35.009Z,989.4
2023-03-30T12:03:51.146Z,989.4
2023-03-30T12:05:07.286Z,989.4
2023-03-30T12:06:23.415Z,989.5
2023-03-30T12:07:39.563Z,989.6
2023-03-30T12:08:55.693Z,989.7
2023-03-30T12:10:11.830Z,989.7
2023-03-30T12:11:28.029Z,989.7
2023-03-30T12:12:43.260Z,989.7
2023-03-30T12:13:58.471Z,989.8
2023-03-30T12:15:13.615Z,989.7
2023-03-30T12:16:29.766Z,989.6
2023-03-30T12:17:45.894Z,989.6
2023-03-30T12:19:02.034Z,989.5
2023-03-30T12:20:18.168Z,989.5
2023-03-30T12:21:34.297Z,989.5
2023-03-30T12:22:50.440Z,989.6
2023-03-30T12:24:06.586Z,989.6
2023-03-30T12:25:22.710Z,989.6
2023-03-30T12:26:38.000Z,989.6
2023-03-30T12:27:54.976Z,989.6
2023-03-30T12:29:11.120Z,989.6
2023-03-30T12:30:27.263Z,989.7
2023-03-30T12:31:43.398Z,989.7
2023-03-30T12:32:59.518Z,989.7
2023-03-30T12:34:15.654Z,989.7
2023-03-30T12:35:31.815Z,989.7
2023-03-30T12:36:47.932Z,989.7
2023-03-30T12:38:04.081Z,989.7
2023-03-30T12:39:20.214Z,989.7
2023-03-30T12:40:36.333Z,989.7
2023-03-30T12:41:52.490Z,989.6
2023-03-30T12:43:08.630Z,989.7
2023-03-30T12:44:24.751Z,989.7
2023-03-30T12:45:40.884Z,989.6
2023-03-30T12:46:57.023Z,989.5
2023-03-30T12:48:13.178Z,989.5
2023-03-30T12:49:29.311Z,989.5
2023-03-30T12:50:45.438Z,989.5
2023-03-30T12:52:01.561Z,989.5
2023-03-30T12:53:17.699Z,989.5
2023-03-30T12:54:33.855Z,989.5
2023-03-30T12:55:49.989Z,989.5
2023-03-30T12:57:06.116Z,989.5
2023-03-30T12:58:22.257Z,989.5
2023-03-30T12:59:38.393Z,989.5
2023-03-30T13:00:54.540Z,989.5
2023-03-30T13:02:10.716Z,989.5
2023-03-30T13:03:25.954Z,989.4
2023-03-30T13:04:41.177Z,989.5
2023-03-30T13:05:57.293Z,989.5
2023-03-30T13:07:13.432Z,989.5
2023-03-30T13:08:29.580Z,989.5
2023-03-30T13:09:45.694Z,989.5
2023-03-30T13:11:01.844Z,989.5
2023-03-30T13:12:17.990Z,989.6
2023-03-30T13:13:34.112Z,989.6
2023-03-30T13:14:50.257Z,989.6
2023-03-30T13:16:06.378Z,989.6
2023-03-30T13:17:22.537Z,989.7
2023-03-30T13:18:38.660Z,989.7
2023-03-30T13:19:54.804Z,989.7
2023-03-30T13:21:10.934Z,989.6
2023-03-30T13:22:27.063Z,989.6
2023-03-30T13:23:43.221Z,989.5
2023-03-30T13:24:59.350Z,989.5
2023-03-30T13:26:15.475Z,989.5
2023-03-30T13:27:31.613Z,989.5
2023-03-30T13:28:47.743Z,989.5
2023-03-30T13:30:03.896Z,989.5
2023-03-30T13:31:20.032Z,989.4
2023-03-30T13:32:36.151Z,989.4
2023-03-30T13:33:52.293Z,989.4
2023-03-30T13:35:08.426Z,989.3
2023-03-30T13:36:24.626Z,989.2
2023-03-30T13:37:39.865Z,989.2
2023-03-30T13:38:55.069Z,989.2
2023-03-30T13:40:11.216Z,989.2
2023-03-30T13:41:27.357Z,989.2
2023-03-30T13:42:43.497Z,989.2
2023-03-30T13:43:59.614Z,989.2
2023-03-30T13:45:15.749Z,989.1
2023-03-30T13:46:31.893Z,989.1
2023-03-30T13:47:48.032Z,989.1
2023-03-30T13:49:04.174Z,989.2
2023-03-30T13:50:20.294Z,989.1
2023-03-30T13:51:36.442Z,989.1
2023-03-30T13:52:52.592Z,989.2
2023-03-30T13:54:08.716Z,989.1
2023-03-30T13:55:24.844Z,989.1
2023-03-30T13:56:40.977Z,989
2023-03-30T13:57:57.123Z,989.1
2023-03-30T13:59:13.260Z,989
2023-03-30T14:00:29.401Z,989.1
2023-03-30T14:01:45.536Z,989.1
2023-03-30T14:03:01.670Z,989.2
2023-03-30T14:04:17.795Z,989.2
2023-03-30T14:05:33.949Z,989.3
2023-03-30T14:06:50.090Z,989.2
2023-03-30T14:08:06.221Z,989.2
2023-03-30T14:09:22.347Z,989.2
2023-03-30T14:10:38.539Z,989.2
2023-03-30T14:11:53.786Z,989.2
2023-03-30T14:13:09.975Z,989.2
2023-03-30T14:14:25.186Z,989.2
2023-03-30T14:15:41.315Z,989.2
2023-03-30T14:16:57.454Z,989.2
2023-03-30T14:18:13.589Z,989.3
2023-03-30T14:19:29.729Z,989.3
2023-03-30T14:20:45.857Z,989.3
2023-03-30T14:22:01.997Z,989.3
2023-03-30T14:23:18.142Z,989.3
2023-03-30T14:24:34.271Z,989.3
2023-03-30T14:25:50.406Z,989.4
2023-03-30T14:27:06.532Z,989.3
2023-03-30T14:28:22.686Z,989.3
2023-03-30T14:29:38.820Z,989.4
2023-03-30T14:30:54.960Z,989.4
2023-03-30T14:32:11.081Z,989.4
2023-03-30T14:33:27.226Z,989.3
2023-03-30T14:34:43.368Z,989.3
2023-03-30T14:35:59.508Z,989.3
2023-03-30T14:37:15.642Z,989.3
2023-03-30T14:38:31.766Z,989.3
2023-03-30T14:39:47.892Z,989.4
2023-03-30T14:41:04.047Z,989.3
2023-03-30T14:42:20.175Z,989.4
2023-03-30T14:43:36.307Z,989.4
2023-03-30T14:44:52.445Z,989.5
2023-03-30T14:46:08.650Z,989.5
2023-03-30T14:47:23.882Z,989.4
2023-03-30T14:48:39.094Z,989.5
2023-03-30T14:49:55.218Z,989.5
2023-03-30T14:51:11.369Z,989.6
2023-03-30T14:52:27.493Z,989.5
2023-03-30T14:53:43.640Z,989.5
2023-03-30T14:54:59.773Z,989.5
2023-03-30T14:56:15.903Z,989.5
2023-03-30T14:57:32.047Z,989.5
2023-03-30T14:58:48.180Z,989.5
2023-03-30T15:00:04.328Z,989.5
2023-03-30T15:01:20.451Z,989.5
2023-03-30T15:02:36.590Z,989.5
2023-03-30T15:03:52.732Z,989.5
2023-03-30T15:05:08.870Z,989.6
2023-03-30T15:06:25.007Z,989.6
2023-03-30T15:07:41.144Z,989.6
2023-03-30T15:08:57.276Z,989.6
2023-03-30T15:10:13.420Z,989.7
2023-03-30T15:11:29.553Z,989.7
2023-03-30T15:12:45.684Z,989.7
2023-03-30T15:14:01.812Z,989.8
2023-03-30T15:15:17.955Z,989.7
2023-03-30T15:16:34.104Z,989.8
2023-03-30T15:17:50.233Z,989.8
2023-03-30T15:19:06.355Z,989.8
2023-03-30T15:20:22.552Z,989.8
2023-03-30T15:21:37.827Z,989.7
2023-03-30T15:22:53.014Z,989.8
2023-03-30T15:24:08.177Z,989.8
2023-03-30T15:25:24.323Z,989.8
2023-03-30T15:26:40.465Z,989.8
2023-03-30T15:27:56.590Z,989.8
2023-03-30T15:29:12.723Z,989.8
2023-03-30T15:30:28.853Z,989.8
2023-03-30T15:31:45.012Z,989.8
2023-03-30T15:33:01.127Z,989.8
2023-03-30T15:34:17.276Z,989.8
2023-03-30T15:35:33.403Z,989.8
2023-03-30T15:36:49.545Z,989.8
2023-03-30T15:38:05.678Z,989.8
2023-03-30T15:39:21.821Z,989.7
2023-03-30T15:40:37.951Z,989.7
2023-03-30T15:41:54.076Z,989.8
2023-03-30T15:43:10.220Z,989.7
2023-03-30T15:44:26.361Z,989.7
2023-03-30T15:45:42.489Z,989.8
2023-03-30T15:46:58.632Z,989.8
2023-03-30T15:48:14.768Z,989.8
2023-03-30T15:49:30.899Z,989.8
2023-03-30T15:50:47.038Z,989.8
2023-03-30T15:52:03.170Z,989.9
2023-03-30T15:53:19.301Z,989.9
2023-03-30T15:54:35.439Z,989.9
2023-03-30T15:55:51.579Z,989.9
2023-03-30T15:57:07.723Z,989.9
2023-03-30T15:58:23.856Z,989.9
2023-03-30T15:59:39.990Z,990
2023-03-30T16:00:56.131Z,989.9
2023-03-30T16:02:12.256Z,990
2023-03-30T16:03:28.414Z,990.1
2023-03-30T16:04:44.536Z,990.1
2023-03-30T16:06:00.679Z,990.1
2023-03-30T16:07:16.812Z,990.2
2023-03-30T16:08:32.942Z,990.2
2023-03-30T16:09:49.083Z,990.2
2023-03-30T16:11:05.288Z,990.3
2023-03-30T16:12:20.520Z,990.3
2023-03-30T16:13:35.727Z,990.4
2023-03-30T16:14:51.860Z,990.4
2023-03-30T16:16:08.002Z,990.3
2023-03-30T16:17:24.120Z,990.3
2023-03-30T16:18:40.259Z,990.3
2023-03-30T16:19:56.402Z,990.3
2023-03-30T16:21:12.529Z,990.2
2023-03-30T16:22:28.663Z,990.2
2023-03-30T16:23:44.799Z,990.3
2023-03-30T16:25:00.948Z,990.3
2023-03-30T16:26:17.090Z,990.3
2023-03-30T16:27:33.222Z,990.4
2023-03-30T16:28:49.362Z,990.3
2023-03-30T16:30:05.482Z,990.3